Georgios S — V7VV8 — position and weather

sailwx.info

Track history (hours):
 
Tides and Currents Weather Stations Pressure Air Temp Water Temp Dewpoint Dewpoint Depression Visibility Wind Speed Wind Dir Waves Ship Positions

Georgios S

Last reported at 2018-Jun-11 12:22 UTC. Time now 2018-Jul-21 18:56 UTC.
Position N 37°52' E 023°32'.
Warning: this ship's position is 40 days out of date.

Length 225 m; draft 7 m.

Type: Cargo ship. MMSI: 538007066.

Date/timePositionNaut miles runAvg speedWind from/ knotsBaromVisibWave heightAir tempDewpointWater temp
2018-Jun-11 12:22N 37°52' E 023°32'0 0.1
2018-Jun-11 11:59N 37°52' E 023°32'0 0.0
2018-Jun-11 11:29N 37°52' E 023°32'0 0.0
2018-Jun-11 10:59N 37°52' E 023°32'0 0.2
2018-Jun-11 10:29N 37°52' E 023°32'0 0.0
2018-Jun-11 09:59N 37°52' E 023°32'0 0.1
2018-Jun-11 09:29N 37°52' E 023°32'0 0.1
2018-Jun-11 08:59N 37°52' E 023°32'0 0.0
2018-Jun-11 08:29N 37°52' E 023°32'0 0.1
2018-Jun-11 07:59N 37°52' E 023°32'0 0.1
2018-Jun-11 07:29N 37°52' E 023°32'0 0.1
2018-Jun-11 06:59N 37°52' E 023°32'0 0.0
2018-Jun-11 06:29N 37°52' E 023°32'0 0.1
2018-Jun-11 05:59N 37°52' E 023°32'0 0.0
2018-Jun-11 05:29N 37°52' E 023°32'0 0.1
2018-Jun-11 04:59N 37°52' E 023°32'0 0.2
2018-Jun-11 04:29N 37°52' E 023°32'0 0.2
2018-Jun-11 03:59N 37°52' E 023°32'0 0.0
2018-Jun-11 03:29N 37°52' E 023°32'0 0.1
2018-Jun-11 02:59N 37°52' E 023°32'0 0.1
2018-Jun-11 02:29N 37°52' E 023°32'0 0.0
2018-Jun-11 01:59N 37°52' E 023°32'0 0.0
2018-Jun-11 01:29N 37°52' E 023°32'0 0.0
2018-Jun-11 00:59N 37°52' E 023°32'0 0.1
2018-Jun-11 00:29N 37°52' E 023°32'0 0.0
2018-Jun-10 23:59N 37°52' E 023°32'0 0.0
2018-Jun-10 23:29N 37°52' E 023°32'0 0.0
2018-Jun-10 22:59N 37°52' E 023°32'0 0.0
2018-Jun-10 22:29N 37°52' E 023°32'0 0.0
2018-Jun-10 21:59N 37°52' E 023°32'0 0.0
2018-Jun-10 21:29N 37°52' E 023°32'0 0.1
2018-Jun-10 20:59N 37°52' E 023°32'0 0.0
2018-Jun-10 20:29N 37°52' E 023°32'0 0.0
2018-Jun-10 19:59N 37°52' E 023°32'0 0.1
2018-Jun-10 19:29N 37°52' E 023°32'0 0.0
2018-Jun-10 18:59N 37°52' E 023°32'0 0.0
2018-Jun-10 18:29N 37°52' E 023°32'0 0.2
2018-Jun-10 17:59N 37°52' E 023°32'0 0.1
2018-Jun-10 17:29N 37°52' E 023°32'0 0.1
2018-Jun-10 16:59N 37°52' E 023°32'0 0.1
2018-Jun-10 16:29N 37°52' E 023°32'0 0.2
2018-Jun-10 15:59N 37°52' E 023°32'0 0.0
2018-Jun-10 15:29N 37°52' E 023°32'1 1.4
2018-Jun-10 15:00N 37°51' E 023°32'3 5.1
2018-Jun-10 14:30N 37°51' E 023°36'7 7.0
2018-Jun-10 13:30N 37°46' E 023°42'611.2
2018-Jun-10 13:00N 37°41' E 023°45'713.6
2018-Jun-10 12:30N 37°36' E 023°51'714.2
2018-Jun-10 12:00N 37°30' E 023°57'30813.2
2018-Jun-09 12:34N 34°00' E 028°35'213.1
2018-Jun-09 12:23N 33°59' E 028°37'4712.4
2018-Jun-09 08:36N 33°33' E 029°23'113.9
2018-Jun-09 08:30N 33°32' E 029°25'17713.7
2018-Jun-08 19:32N 31°38' E 032°07'213.8
2018-Jun-08 19:23N 31°37' E 032°08'613.7
2018-Jun-08 18:57N 31°33' E 032°14'613.8
2018-Jun-08 18:30N 31°28' E 032°18'87 4.5
2018-Jun-07 23:06N 30°02' E 032°35'1 8.7
2018-Jun-07 22:58N 30°01' E 032°35'  
Track history (hours):
 
Tides and Currents Weather Stations Pressure Air Temp Water Temp Dewpoint Dewpoint Depression Visibility Wind Speed Wind Dir Waves Ship Positions

Georgios S

Last reported at 2018-Jun-11 12:22 UTC. Time now 2018-Jul-21 18:56 UTC.
Position N 37°52' E 023°32'.
Warning: this ship's position is 40 days out of date.

Length 225 m; draft 7 m.

Type: Cargo ship. MMSI: 538007066.

Date/timePositionNaut miles runAvg speedWind from/ knotsBaromVisibWave heightAir tempDewpointWater temp
2018-Jun-11 12:22N 37°52' E 023°32'0 0.1
2018-Jun-11 11:59N 37°52' E 023°32'0 0.0
2018-Jun-11 11:29N 37°52' E 023°32'0 0.0
2018-Jun-11 10:59N 37°52' E 023°32'0 0.2
2018-Jun-11 10:29N 37°52' E 023°32'0 0.0
2018-Jun-11 09:59N 37°52' E 023°32'0 0.1
2018-Jun-11 09:29N 37°52' E 023°32'0 0.1
2018-Jun-11 08:59N 37°52' E 023°32'0 0.0
2018-Jun-11 08:29N 37°52' E 023°32'0 0.1
2018-Jun-11 07:59N 37°52' E 023°32'0 0.1
2018-Jun-11 07:29N 37°52' E 023°32'0 0.1
2018-Jun-11 06:59N 37°52' E 023°32'0 0.0
2018-Jun-11 06:29N 37°52' E 023°32'0 0.1
2018-Jun-11 05:59N 37°52' E 023°32'0 0.0
2018-Jun-11 05:29N 37°52' E 023°32'0 0.1
2018-Jun-11 04:59N 37°52' E 023°32'0 0.2
2018-Jun-11 04:29N 37°52' E 023°32'0 0.2
2018-Jun-11 03:59N 37°52' E 023°32'0 0.0
2018-Jun-11 03:29N 37°52' E 023°32'0 0.1
2018-Jun-11 02:59N 37°52' E 023°32'0 0.1
2018-Jun-11 02:29N 37°52' E 023°32'0 0.0
2018-Jun-11 01:59N 37°52' E 023°32'0 0.0
2018-Jun-11 01:29N 37°52' E 023°32'0 0.0
2018-Jun-11 00:59N 37°52' E 023°32'0 0.1
2018-Jun-11 00:29N 37°52' E 023°32'0 0.0
2018-Jun-10 23:59N 37°52' E 023°32'0 0.0
2018-Jun-10 23:29N 37°52' E 023°32'0 0.0
2018-Jun-10 22:59N 37°52' E 023°32'0 0.0
2018-Jun-10 22:29N 37°52' E 023°32'0 0.0
2018-Jun-10 21:59N 37°52' E 023°32'0 0.0
2018-Jun-10 21:29N 37°52' E 023°32'0 0.1
2018-Jun-10 20:59N 37°52' E 023°32'0 0.0
2018-Jun-10 20:29N 37°52' E 023°32'0 0.0
2018-Jun-10 19:59N 37°52' E 023°32'0 0.1
2018-Jun-10 19:29N 37°52' E 023°32'0 0.0
2018-Jun-10 18:59N 37°52' E 023°32'0 0.0
2018-Jun-10 18:29N 37°52' E 023°32'0 0.2
2018-Jun-10 17:59N 37°52' E 023°32'0 0.1
2018-Jun-10 17:29N 37°52' E 023°32'0 0.1
2018-Jun-10 16:59N 37°52' E 023°32'0 0.1
2018-Jun-10 16:29N 37°52' E 023°32'0 0.2
2018-Jun-10 15:59N 37°52' E 023°32'0 0.0
2018-Jun-10 15:29N 37°52' E 023°32'1 1.4
2018-Jun-10 15:00N 37°51' E 023°32'3 5.1
2018-Jun-10 14:30N 37°51' E 023°36'7 7.0
2018-Jun-10 13:30N 37°46' E 023°42'611.2
2018-Jun-10 13:00N 37°41' E 023°45'713.6
2018-Jun-10 12:30N 37°36' E 023°51'714.2
2018-Jun-10 12:00N 37°30' E 023°57'30813.2
2018-Jun-09 12:34N 34°00' E 028°35'213.1
2018-Jun-09 12:23N 33°59' E 028°37'4712.4
2018-Jun-09 08:36N 33°33' E 029°23'113.9
2018-Jun-09 08:30N 33°32' E 029°25'17713.7
2018-Jun-08 19:32N 31°38' E 032°07'213.8
2018-Jun-08 19:23N 31°37' E 032°08'613.7
2018-Jun-08 18:57N 31°33' E 032°14'613.8
2018-Jun-08 18:30N 31°28' E 032°18'87 4.5
2018-Jun-07 23:06N 30°02' E 032°35'1 8.7
2018-Jun-07 22:58N 30°01' E 032°35'  

Dump ship's entire track history